createdAt,value
2017-10-11T00:01:51.238Z,90.13
2017-10-11T00:04:17.489Z,90.07
2017-10-11T00:06:43.813Z,90.26
2017-10-11T00:09:10.022Z,90.34
2017-10-11T00:11:36.259Z,90.96
2017-10-11T00:14:02.495Z,91.24
2017-10-11T00:16:28.715Z,91.44
2017-10-11T00:18:55.058Z,90.93
2017-10-11T00:21:21.272Z,91.11
2017-10-11T00:23:47.527Z,90.89
2017-10-11T00:26:13.846Z,90.89
2017-10-11T00:28:40.070Z,90.77
2017-10-11T00:31:06.397Z,90.31
2017-10-11T00:33:32.628Z,90.45
2017-10-11T00:35:58.862Z,90.67
2017-10-11T00:38:25.082Z,90.77
2017-10-11T00:40:51.328Z,90.89
2017-10-11T00:43:17.646Z,90.87
2017-10-11T00:45:43.873Z,90.57
2017-10-11T00:48:10.108Z,90.21
2017-10-11T00:50:36.371Z,90.09
2017-10-11T00:53:02.670Z,89.96
2017-10-11T00:55:29.018Z,89.67
2017-10-11T00:57:55.246Z,89.74
2017-10-11T01:00:21.455Z,89.86
2017-10-11T01:02:47.700Z,89.81
2017-10-11T01:05:13.887Z,90.23
2017-10-11T01:07:40.157Z,90.22
2017-10-11T01:10:06.385Z,90.08
2017-10-11T01:12:32.595Z,90.24
2017-10-11T01:14:58.835Z,90.21
2017-10-11T01:17:25.071Z,90.87
2017-10-11T01:19:51.409Z,90.81
2017-10-11T01:22:17.656Z,90.63
2017-10-11T01:24:43.861Z,90.42
2017-10-11T01:27:10.098Z,90.24
2017-10-11T01:29:36.318Z,89.98
2017-10-11T01:32:02.661Z,90.10
2017-10-11T01:34:28.879Z,90.07
2017-10-11T01:36:55.112Z,90.21
2017-10-11T01:39:21.335Z,90.25
2017-10-11T01:41:47.589Z,90.24
2017-10-11T01:44:13.922Z,90.48
2017-10-11T01:46:40.150Z,90.34
2017-10-11T01:49:06.357Z,90.81
2017-10-11T01:51:32.603Z,90.22
2017-10-11T01:53:58.848Z,90.19
2017-10-11T01:56:25.153Z,90.11
2017-10-11T01:58:51.391Z,89.81
2017-10-11T02:01:17.630Z,89.70
2017-10-11T02:03:43.852Z,89.81
2017-10-11T02:06:10.070Z,90.62
2017-10-11T02:08:36.410Z,91.07
2017-10-11T02:11:02.633Z,90.49
2017-10-11T02:13:28.893Z,90.25
2017-10-11T02:15:55.214Z,90.15
2017-10-11T02:18:21.436Z,90.05
2017-10-11T02:20:47.765Z,90.06
2017-10-11T02:23:14.076Z,90.02
2017-10-11T02:25:40.506Z,90.16
2017-10-11T02:28:07.291Z,90.07
2017-10-11T02:30:33.601Z,90.62
2017-10-11T02:32:59.960Z,90.83
2017-10-11T02:35:26.263Z,91.02
2017-10-11T02:37:52.494Z,91.04
2017-10-11T02:40:18.735Z,91.21
2017-10-11T02:42:44.915Z,91.23
2017-10-11T02:45:11.308Z,91.06
2017-10-11T02:47:37.521Z,91.47
2017-10-11T02:50:03.789Z,91.29
2017-10-11T02:52:29.986Z,91.39
2017-10-11T02:54:56.195Z,91.38
2017-10-11T02:57:22.437Z,91.08
2017-10-11T02:59:48.668Z,90.98
2017-10-11T03:02:14.903Z,90.80
2017-10-11T03:04:41.128Z,90.79
2017-10-11T03:07:07.371Z,90.70
2017-10-11T03:09:33.685Z,91.53
2017-10-11T03:11:59.929Z,91.61
2017-10-11T03:14:26.166Z,91.25
2017-10-11T03:16:52.487Z,91.10
2017-10-11T03:19:18.703Z,90.96
2017-10-11T03:21:44.953Z,90.92
2017-10-11T03:24:11.175Z,90.69
2017-10-11T03:26:37.388Z,90.57
2017-10-11T03:29:03.649Z,90.84
2017-10-11T03:31:29.848Z,91.26
2017-10-11T03:33:56.199Z,91.53
2017-10-11T03:36:22.424Z,91.65
2017-10-11T03:38:48.633Z,91.57
2017-10-11T03:41:14.869Z,91.29
2017-10-11T03:43:41.112Z,91.38
2017-10-11T03:46:07.458Z,91.19
2017-10-11T03:48:33.659Z,91.14
2017-10-11T03:50:59.915Z,91.20
2017-10-11T03:53:26.135Z,91.07
2017-10-11T03:55:52.361Z,90.93
2017-10-11T03:58:18.705Z,90.93
2017-10-11T04:00:44.940Z,90.71
2017-10-11T04:03:11.271Z,90.41
2017-10-11T04:05:37.470Z,90.13
2017-10-11T04:08:03.699Z,89.70
2017-10-11T04:10:30.044Z,90.85
2017-10-11T04:12:56.284Z,91.02
2017-10-11T04:15:22.508Z,91.13
2017-10-11T04:17:48.753Z,91.13
2017-10-11T04:20:14.963Z,91.20
2017-10-11T04:22:41.286Z,91.17
2017-10-11T04:25:07.542Z,91.12
2017-10-11T04:27:33.754Z,91.14
2017-10-11T04:29:59.990Z,91.10
2017-10-11T04:32:26.224Z,91.14
2017-10-11T04:34:52.523Z,91.29
2017-10-11T04:37:18.777Z,91.15
2017-10-11T04:39:44.994Z,91.19
2017-10-11T04:42:11.240Z,90.29
2017-10-11T04:44:37.485Z,90.65
2017-10-11T04:47:03.802Z,90.40
2017-10-11T04:49:30.027Z,90.54
2017-10-11T04:51:56.249Z,90.43
2017-10-11T04:54:22.500Z,90.88
2017-10-11T04:56:48.717Z,90.90
2017-10-11T04:59:15.032Z,90.83
2017-10-11T05:01:41.283Z,90.80
2017-10-11T05:04:07.507Z,91.46
2017-10-11T05:06:33.823Z,91.81
2017-10-11T05:09:00.081Z,92.00
2017-10-11T05:11:26.399Z,92.18
2017-10-11T05:13:52.627Z,92.57
2017-10-11T05:16:18.884Z,92.40
2017-10-11T05:18:45.206Z,85.31
2017-10-11T05:21:11.429Z,83.10
2017-10-11T05:23:37.746Z,80.37
2017-10-11T05:26:04.023Z,78.45
2017-10-11T05:28:30.334Z,76.07
2017-10-11T05:30:56.673Z,71.80
2017-10-11T05:33:22.980Z,67.80
2017-10-11T05:35:49.241Z,68.32
2017-10-11T05:38:15.558Z,68.29
2017-10-11T05:40:41.786Z,67.29
2017-10-11T05:43:08.123Z,66.38
2017-10-11T05:45:34.364Z,64.05
2017-10-11T05:48:00.660Z,63.18
2017-10-11T05:50:26.920Z,61.80
2017-10-11T05:52:53.133Z,60.20
2017-10-11T05:55:19.469Z,58.37
2017-10-11T05:57:45.702Z,60.08
2017-10-11T06:00:11.955Z,60.02
2017-10-11T06:02:38.274Z,60.12
2017-10-11T06:05:04.498Z,62.96
2017-10-11T06:07:30.821Z,62.89
2017-10-11T06:09:57.050Z,60.47
2017-10-11T06:12:23.294Z,56.11
2017-10-11T06:14:49.631Z,53.53
2017-10-11T06:17:15.830Z,53.28
2017-10-11T06:19:42.185Z,53.39
2017-10-11T06:22:08.401Z,51.69
2017-10-11T06:24:34.644Z,52.18
2017-10-11T06:27:00.853Z,51.10
2017-10-11T06:29:27.082Z,51.61
2017-10-11T06:31:53.418Z,53.06
2017-10-11T06:34:19.668Z,54.25
2017-10-11T06:36:45.909Z,54.56
2017-10-11T06:39:12.112Z,54.29
2017-10-11T06:41:38.306Z,52.96
2017-10-11T06:44:04.545Z,50.57
2017-10-11T06:46:30.759Z,49.81
2017-10-11T06:48:56.962Z,50.85
2017-10-11T06:51:23.175Z,51.97
2017-10-11T06:53:49.385Z,52.05
2017-10-11T06:56:15.614Z,51.76
2017-10-11T06:58:41.837Z,51.16
2017-10-11T07:01:08.030Z,51.16
2017-10-11T07:03:34.242Z,52.14
2017-10-11T07:06:00.440Z,50.51
2017-10-11T07:08:26.680Z,49.96
2017-10-11T07:10:52.896Z,49.42
2017-10-11T07:13:20.141Z,48.68
2017-10-11T07:15:46.339Z,47.94
2017-10-11T07:18:12.526Z,49.07
2017-10-11T07:20:38.781Z,48.34
2017-10-11T07:23:04.981Z,47.87
2017-10-11T07:25:31.187Z,47.80
2017-10-11T07:27:57.381Z,47.07
2017-10-11T07:30:23.591Z,45.27
2017-10-11T07:32:49.807Z,45.01
2017-10-11T07:35:16.024Z,45.74
2017-10-11T07:37:42.236Z,46.50
2017-10-11T07:40:08.430Z,46.09
2017-10-11T07:42:34.657Z,46.50
2017-10-11T07:45:00.894Z,45.07
2017-10-11T07:47:27.118Z,45.75
2017-10-11T07:49:53.310Z,46.56
2017-10-11T07:52:19.504Z,43.84
2017-10-11T07:54:45.738Z,44.95
2017-10-11T07:57:11.966Z,45.98
2017-10-11T07:59:38.174Z,49.75
2017-10-11T08:02:04.374Z,48.99
2017-10-11T08:04:30.564Z,48.51
2017-10-11T08:06:56.776Z,45.74
2017-10-11T08:09:23.015Z,43.56
2017-10-11T08:11:49.217Z,42.72
2017-10-11T08:14:15.427Z,42.65
2017-10-11T08:16:42.015Z,41.36
2017-10-11T08:19:08.216Z,41.69
2017-10-11T08:21:34.448Z,43.47
2017-10-11T08:24:00.698Z,45.42
2017-10-11T08:26:26.926Z,48.97
2017-10-11T08:28:53.113Z,48.45
2017-10-11T08:31:19.329Z,44.82
2017-10-11T08:33:45.530Z,43.16
2017-10-11T08:36:11.739Z,40.69
2017-10-11T08:38:37.942Z,41.06
2017-10-11T08:41:04.167Z,38.15
2017-10-11T08:43:30.361Z,36.69
2017-10-11T08:45:56.545Z,37.12
2017-10-11T08:48:22.752Z,38.82
2017-10-11T08:50:48.970Z,39.40
2017-10-11T08:53:15.200Z,39.15
2017-10-11T08:55:41.438Z,37.03
2017-10-11T08:58:07.636Z,35.82
2017-10-11T09:00:33.835Z,37.69
2017-10-11T09:03:00.061Z,40.02
2017-10-11T09:05:26.294Z,39.85
2017-10-11T09:07:52.507Z,39.85
2017-10-11T09:10:18.718Z,38.19
2017-10-11T09:12:44.935Z,38.65
2017-10-11T09:15:11.128Z,39.45
2017-10-11T09:17:37.391Z,39.10
2017-10-11T09:20:03.618Z,37.28
2017-10-11T09:22:29.819Z,37.44
2017-10-11T09:24:56.024Z,36.66
2017-10-11T09:27:22.224Z,36.66
2017-10-11T09:29:48.456Z,36.48
2017-10-11T09:32:14.692Z,37.72
2017-10-11T09:34:40.894Z,38.35
2017-10-11T09:37:07.121Z,39.54
2017-10-11T09:39:33.302Z,38.55
2017-10-11T09:41:59.488Z,37.70
2017-10-11T09:44:25.686Z,36.94
2017-10-11T09:46:51.880Z,39.45
2017-10-11T09:49:18.116Z,38.15
2017-10-11T09:51:44.395Z,37.02
2017-10-11T09:54:10.644Z,36.18
2017-10-11T09:56:36.854Z,39.57
2017-10-11T09:59:03.614Z,39.92
2017-10-11T10:01:29.825Z,41.92
2017-10-11T10:03:56.078Z,40.96
2017-10-11T10:06:22.264Z,40.07
2017-10-11T10:08:48.463Z,39.79
2017-10-11T10:11:14.682Z,38.73
2017-10-11T10:18:33.993Z,36.85
2017-10-11T10:21:00.207Z,37.56
2017-10-11T10:23:26.418Z,39.36
2017-10-11T10:25:52.643Z,39.78
2017-10-11T10:28:18.874Z,39.09
2017-10-11T10:47:00.075Z,36.38
2017-10-11T10:49:26.324Z,37.10
2017-10-11T10:51:52.561Z,37.10
2017-10-11T10:54:18.781Z,36.72
2017-10-11T10:56:44.990Z,36.21
2017-10-11T10:59:11.207Z,37.21
2017-10-11T11:01:37.409Z,34.88
2017-10-11T11:04:03.653Z,33.50
2017-10-11T11:06:29.869Z,34.15
2017-10-11T11:08:56.074Z,35.55
2017-10-11T11:11:22.278Z,36.23
2017-10-11T11:13:48.506Z,36.00
2017-10-11T11:16:14.775Z,36.23
2017-10-11T11:18:40.961Z,35.12
2017-10-11T11:21:07.145Z,34.03
2017-10-11T11:23:33.344Z,37.21
2017-10-11T11:25:59.541Z,36.20
2017-10-11T11:28:25.807Z,35.09
2017-10-11T11:30:52.043Z,35.85
2017-10-11T11:33:18.228Z,36.58
2017-10-11T11:35:44.409Z,35.44
2017-10-11T11:38:10.644Z,36.22
2017-10-11T11:40:36.872Z,36.03
2017-10-11T11:43:03.049Z,34.84
2017-10-11T11:45:29.262Z,36.72
2017-10-11T11:47:55.463Z,34.10
2017-10-11T11:50:21.650Z,33.83
2017-10-11T11:52:47.918Z,34.12
2017-10-11T11:55:14.124Z,32.72
2017-10-11T11:57:40.326Z,32.11
2017-10-11T12:00:06.520Z,33.44
2017-10-11T12:02:32.714Z,33.67
2017-10-11T12:04:58.955Z,33.75
2017-10-11T12:07:25.163Z,33.63
2017-10-11T12:09:51.427Z,32.37
2017-10-11T12:12:17.631Z,31.81
2017-10-11T12:14:43.816Z,33.39
2017-10-11T12:17:10.074Z,31.40
2017-10-11T12:19:36.283Z,31.16
2017-10-11T12:22:02.459Z,32.07
2017-10-11T12:24:28.701Z,31.01
2017-10-11T12:26:54.901Z,32.41
2017-10-11T12:29:22.110Z,31.26
2017-10-11T12:31:48.310Z,30.54
2017-10-11T12:34:14.512Z,31.19
2017-10-11T12:36:40.735Z,30.51
2017-10-11T12:39:06.922Z,30.65
2017-10-11T12:41:33.136Z,30.87
2017-10-11T12:43:59.342Z,31.08
2017-10-11T12:46:25.542Z,31.02
2017-10-11T12:53:25.962Z,30.45
2017-10-11T12:55:52.164Z,30.35
2017-10-11T12:58:18.368Z,32.31
2017-10-11T13:00:44.631Z,32.43
2017-10-11T13:03:10.851Z,31.99
2017-10-11T13:05:37.042Z,31.69
2017-10-11T13:08:03.239Z,31.88
2017-10-11T13:10:29.448Z,32.37
2017-10-11T13:12:55.813Z,32.14
2017-10-11T13:15:22.021Z,31.74
2017-10-11T13:17:48.230Z,31.42
2017-10-11T13:20:14.471Z,32.18
2017-10-11T13:22:40.685Z,31.57
2017-10-11T13:25:06.871Z,30.59
2017-10-11T13:27:33.112Z,31.53
2017-10-11T13:29:59.304Z,32.00
2017-10-11T13:32:25.508Z,31.90
2017-10-11T13:34:51.705Z,30.57
2017-10-11T13:37:17.888Z,31.88
2017-10-11T13:39:44.108Z,30.94
2017-10-11T13:42:10.298Z,32.14
2017-10-11T13:44:36.510Z,32.36
2017-10-11T13:47:02.705Z,33.36
2017-10-11T13:49:28.893Z,33.11
2017-10-11T13:51:55.122Z,34.10
2017-10-11T13:54:21.303Z,34.35
2017-10-11T13:56:47.494Z,34.30
2017-10-11T13:59:15.809Z,34.19
2017-10-11T14:01:42.012Z,35.76
2017-10-11T14:04:08.225Z,35.16
2017-10-11T14:06:34.413Z,36.45
2017-10-11T14:09:00.659Z,36.42
2017-10-11T14:11:26.907Z,37.10
2017-10-11T14:13:53.101Z,36.75
2017-10-11T14:16:19.317Z,36.13
2017-10-11T14:18:45.542Z,37.57
2017-10-11T14:21:11.730Z,36.86
2017-10-11T14:23:37.965Z,37.82
2017-10-11T14:26:04.184Z,37.22
2017-10-11T14:31:03.200Z,36.63
2017-10-11T14:33:29.918Z,35.89
2017-10-11T14:35:56.225Z,36.71
2017-10-11T14:38:22.407Z,36.23
2017-10-11T14:40:48.594Z,37.19
2017-10-11T14:43:14.795Z,36.15
2017-10-11T14:45:41.792Z,37.29
2017-10-11T14:48:08.026Z,36.29
2017-10-11T14:50:34.240Z,36.41
2017-10-11T14:53:00.538Z,36.91
2017-10-11T14:55:26.859Z,37.20
2017-10-11T14:57:53.098Z,36.15
2017-10-11T15:00:19.327Z,36.57
2017-10-11T15:02:45.592Z,35.90
2017-10-11T15:05:11.891Z,36.37
2017-10-11T15:07:38.253Z,37.47
2017-10-11T15:10:04.606Z,38.54
2017-10-11T15:12:30.894Z,39.54
2017-10-11T15:14:57.127Z,39.40
2017-10-11T15:17:23.448Z,40.46
2017-10-11T15:19:49.703Z,42.11
2017-10-11T15:22:16.037Z,44.08
2017-10-11T15:24:42.210Z,45.05
2017-10-11T15:27:08.478Z,47.01
2017-10-11T15:29:34.674Z,47.68
2017-10-11T15:32:00.912Z,49.04
2017-10-11T15:34:27.159Z,49.50
2017-10-11T15:36:53.520Z,50.35
2017-10-11T15:39:19.861Z,50.71
2017-10-11T15:41:46.170Z,52.34
2017-10-11T15:44:12.475Z,52.95
2017-10-11T15:46:38.679Z,54.50
2017-10-11T15:49:04.950Z,56.95
2017-10-11T15:51:32.722Z,58.06
2017-10-11T15:53:59.085Z,59.14
2017-10-11T15:56:25.378Z,59.74
2017-10-11T15:58:51.587Z,60.08
2017-10-11T16:01:17.804Z,60.06
2017-10-11T16:03:44.019Z,61.12
2017-10-11T16:06:10.221Z,61.55
2017-10-11T16:08:36.517Z,61.66
2017-10-11T16:11:02.749Z,62.30
2017-10-11T16:13:28.961Z,62.80
2017-10-11T16:15:55.182Z,63.54
2017-10-11T16:18:21.411Z,63.27
2017-10-11T16:20:47.651Z,64.04
2017-10-11T16:23:13.840Z,64.54
2017-10-11T16:25:40.052Z,64.93
2017-10-11T16:28:06.260Z,65.93
2017-10-11T16:30:32.458Z,66.24
2017-10-11T16:32:58.683Z,66.28
2017-10-11T16:35:24.916Z,66.77
2017-10-11T16:37:51.117Z,66.84
2017-10-11T16:40:17.333Z,67.54
2017-10-11T16:42:43.522Z,67.68
2017-10-11T16:45:09.781Z,68.42
2017-10-11T16:47:35.994Z,68.17
2017-10-11T16:50:02.172Z,68.56
2017-10-11T16:52:28.359Z,68.92
2017-10-11T16:54:54.560Z,68.96
2017-10-11T16:57:20.825Z,68.53
2017-10-11T16:59:47.025Z,68.90
2017-10-11T17:02:13.242Z,69.19
2017-10-11T17:04:39.450Z,69.18
2017-10-11T17:07:05.643Z,69.28
2017-10-11T17:09:31.871Z,70.15
2017-10-11T17:11:58.081Z,70.51
2017-10-11T17:14:24.281Z,70.32
2017-10-11T17:16:50.473Z,70.55
2017-10-11T17:19:16.711Z,71.13
2017-10-11T17:21:42.984Z,71.67
2017-10-11T17:24:09.192Z,71.30
2017-10-11T17:26:35.383Z,71.83
2017-10-11T17:29:01.644Z,72.46
2017-10-11T17:31:27.876Z,72.77
2017-10-11T17:33:54.285Z,72.65
2017-10-11T17:36:20.495Z,73.17
2017-10-11T17:38:46.688Z,73.48
2017-10-11T17:41:12.963Z,73.56
2017-10-11T17:43:40.771Z,75.61
2017-10-11T17:46:06.990Z,76.18
2017-10-11T17:48:33.210Z,76.19
2017-10-11T17:50:59.422Z,76.52
2017-10-11T17:53:25.723Z,76.55
2017-10-11T17:55:51.907Z,76.45
2017-10-11T17:58:18.111Z,77.65
2017-10-11T18:00:44.308Z,78.43
2017-10-11T18:03:10.510Z,78.58
2017-10-11T18:05:36.838Z,79.59
2017-10-11T18:08:03.045Z,80.23
2017-10-11T18:10:29.268Z,80.85
2017-10-11T18:12:55.483Z,80.47
2017-10-11T18:15:21.711Z,80.35
2017-10-11T18:17:47.960Z,80.20
2017-10-11T18:20:14.200Z,80.22
2017-10-11T18:22:40.423Z,80.26
2017-10-11T18:25:06.650Z,80.95
2017-10-11T18:27:32.863Z,80.87
2017-10-11T18:29:59.080Z,81.65
2017-10-11T18:32:25.292Z,81.43
2017-10-11T18:34:51.528Z,81.81
2017-10-11T18:37:17.770Z,81.48
2017-10-11T18:39:44.034Z,81.09
2017-10-11T18:42:10.243Z,80.52
2017-10-11T18:44:36.454Z,81.68
2017-10-11T18:47:02.668Z,82.12
2017-10-11T18:49:28.948Z,82.21
2017-10-11T18:51:55.181Z,81.85
2017-10-11T18:54:21.380Z,81.58
2017-10-11T18:56:47.682Z,81.69
2017-10-11T18:59:13.902Z,81.97
2017-10-11T19:01:40.151Z,82.04
2017-10-11T19:04:06.380Z,82.41
2017-10-11T19:06:32.591Z,83.09
2017-10-11T19:08:58.792Z,84.34
2017-10-11T19:11:25.017Z,84.60
2017-10-11T19:13:51.240Z,84.52
2017-10-11T19:16:17.463Z,84.44
2017-10-11T19:18:43.682Z,84.50
2017-10-11T19:21:09.882Z,84.92
2017-10-11T19:23:36.124Z,84.87
2017-10-11T19:26:02.376Z,85.38
2017-10-11T19:28:28.580Z,86.18
2017-10-11T19:30:54.773Z,86.14
2017-10-11T19:33:20.978Z,85.73
2017-10-11T19:35:47.187Z,85.71
2017-10-11T19:38:13.430Z,85.55
2017-10-11T19:40:39.656Z,85.78
2017-10-11T19:43:05.886Z,85.53
2017-10-11T19:45:32.137Z,85.58
2017-10-11T19:47:58.350Z,85.79
2017-10-11T19:50:24.573Z,85.83
2017-10-11T19:52:50.785Z,87.27
2017-10-11T19:55:16.984Z,87.28
2017-10-11T19:57:43.193Z,86.71
2017-10-11T20:00:09.406Z,86.28
2017-10-11T20:02:35.611Z,86.29
2017-10-11T20:05:01.854Z,86.30
2017-10-11T20:07:28.070Z,87.18
2017-10-11T20:09:54.259Z,87.34
2017-10-11T20:12:20.519Z,87.17
2017-10-11T20:14:46.723Z,88.63
2017-10-11T20:17:13.004Z,87.55
2017-10-11T20:19:39.242Z,88.49
2017-10-11T20:22:05.555Z,88.26
2017-10-11T20:24:31.906Z,88.52
2017-10-11T20:26:58.251Z,88.83
2017-10-11T20:29:24.559Z,88.50
2017-10-11T20:31:50.965Z,88.36
2017-10-11T20:34:17.507Z,87.99
2017-10-11T20:36:44.218Z,88.46
2017-10-11T20:39:10.891Z,88.68
2017-10-11T20:41:37.243Z,88.37
2017-10-11T20:44:03.533Z,88.70
2017-10-11T20:46:29.776Z,88.62
2017-10-11T20:48:56.110Z,88.57
2017-10-11T20:51:22.438Z,88.79
2017-10-11T20:53:48.699Z,88.59
2017-10-11T20:56:15.015Z,88.63
2017-10-11T20:58:41.251Z,88.62
2017-10-11T21:01:07.573Z,88.33
2017-10-11T21:03:33.936Z,88.06
2017-10-11T21:06:00.254Z,88.10
2017-10-11T21:08:26.565Z,88.06
2017-10-11T21:10:52.806Z,89.30
2017-10-11T21:13:19.030Z,88.83
2017-10-11T21:15:45.339Z,88.49
2017-10-11T21:24:55.442Z,90.05
2017-10-11T21:27:21.641Z,90.75
2017-10-11T21:29:47.931Z,90.72
2017-10-11T21:32:14.236Z,90.46
2017-10-11T21:34:40.504Z,90.41
2017-10-11T21:37:06.813Z,89.75
2017-10-11T21:39:33.024Z,89.57
2017-10-11T21:41:59.264Z,89.39
2017-10-11T21:44:25.502Z,89.35
2017-10-11T21:46:51.715Z,89.33
2017-10-11T21:49:17.976Z,89.60
2017-10-11T21:51:44.313Z,89.26
2017-10-11T21:54:10.617Z,89.41
2017-10-11T21:56:36.863Z,89.69
2017-10-11T21:59:03.177Z,89.65
2017-10-11T22:01:29.403Z,89.64
2017-10-11T22:03:55.650Z,89.82
2017-10-11T22:06:21.888Z,89.73
2017-10-11T22:08:48.091Z,89.52
2017-10-11T22:11:14.450Z,89.70
2017-10-11T22:13:40.775Z,89.63
2017-10-11T22:16:07.004Z,89.59
2017-10-11T22:18:33.218Z,89.45
2017-10-11T22:20:59.464Z,89.76
2017-10-11T22:23:25.692Z,89.82
2017-10-11T22:25:51.908Z,89.97
2017-10-11T22:28:18.269Z,89.40
2017-10-11T22:30:44.589Z,89.16
2017-10-11T22:33:10.795Z,89.53
2017-10-11T22:35:37.023Z,89.79
2017-10-11T22:38:03.257Z,89.67
2017-10-11T22:40:29.509Z,89.51
2017-10-11T22:42:55.831Z,89.39
2017-10-11T22:45:22.057Z,89.40
2017-10-11T22:47:48.282Z,89.96
2017-10-11T22:50:14.505Z,90.28
2017-10-11T22:52:40.735Z,90.57
2017-10-11T22:55:07.032Z,90.68
2017-10-11T22:57:33.309Z,90.61
2017-10-11T22:59:59.544Z,90.57
2017-10-11T23:02:25.744Z,90.53
2017-10-11T23:04:51.999Z,90.37
2017-10-11T23:07:18.235Z,90.32
2017-10-11T23:09:44.431Z,90.18
2017-10-11T23:12:10.697Z,90.69
2017-10-11T23:14:36.908Z,90.17
2017-10-11T23:17:03.136Z,90.04
2017-10-11T23:19:29.366Z,90.24
2017-10-11T23:21:55.592Z,90.13
2017-10-11T23:24:21.824Z,89.96
2017-10-11T23:26:48.065Z,90.22
2017-10-11T23:29:14.288Z,90.71
2017-10-11T23:31:40.524Z,90.43
2017-10-11T23:34:06.761Z,90.77
2017-10-11T23:36:32.988Z,91.33
2017-10-11T23:38:59.224Z,91.44
2017-10-11T23:41:25.426Z,91.10
2017-10-11T23:43:51.669Z,90.94
2017-10-11T23:46:17.900Z,90.75
2017-10-11T23:48:44.120Z,90.48
2017-10-11T23:51:10.349Z,90.37
2017-10-11T23:53:36.593Z,91.12
2017-10-11T23:56:02.918Z,91.61
2017-10-11T23:58:29.162Z,91.45
